Time;durP1;ratioP1;P1;durP2;ratioP2;P2;SDS_P1;SDS_P2;PMS_P1;PMS_P2;Temp;Humidity;BMP_temperature;BMP_pressure;BME280_temperature;BME280_humidity;BME280_pressure;Samples;Min_cycle;Max_cycle;Signal;HPM_P1;HPM_P2
2024/01/28 00:00:07;;;;;;;17.50;8.52;;;;;;;;;;505966;29;1817;-72
2024/01/28 00:00:23;;;;;;;16.55;8.52;;;;;;;;;;507853;29;1488;-72
2024/01/28 00:00:38;;;;;;;15.30;8.57;;;;;;;;;;508722;29;1462;-72
2024/01/28 00:00:53;;;;;;;14.87;8.53;;;;;;;;;;507775;28;1766;-71
2024/01/28 00:01:09;;;;;;;13.80;8.48;;;;;;;;;;512697;28;1363;-72
2024/01/28 00:01:25;;;;;;;13.50;8.33;;;;;;;;;;514309;28;1496;-72
2024/01/28 00:01:41;;;;;;;14.75;8.10;;;;;;;;;;516043;28;1425;-72
2024/01/28 00:01:57;;;;;;;15.03;8.23;;;;;;;;;;516103;28;1766;-72
2024/01/28 00:02:12;;;;;;;15.05;8.50;;;;;;;;;;518436;28;1276;-72
2024/01/28 00:02:27;;;;;;;15.77;8.53;;;;;;;;;;518413;28;1195;-72
2024/01/28 00:02:43;;;;;;;16.70;8.55;;;;;;;;;;518216;28;1487;-72
2024/01/28 00:02:58;;;;;;;16.47;8.57;;;;;;;;;;518701;28;1454;-72
2024/01/28 00:03:13;;;;;;;15.52;8.30;;;;;;;;;;518388;28;1338;-72
2024/01/28 00:03:29;;;;;;;15.37;8.30;;;;;;;;;;517961;28;1855;-72
2024/01/28 00:03:44;;;;;;;14.23;8.47;;;;;;;;;;517489;28;1186;-72
2024/01/28 00:03:59;;;;;;;13.65;7.82;;;;;;;;;;514486;28;1513;-72
2024/01/28 00:04:16;;;;;;;13.03;7.50;;;;;;;;;;511384;28;1847;-73
2024/01/28 00:04:31;;;;;;;12.75;7.65;;;;;;;;;;510337;28;1312;-72
2024/01/28 00:04:46;;;;;;;14.60;8.03;;;;;;;;;;509972;28;1593;-72
2024/01/28 00:05:02;;;;;;;14.27;7.70;;;;;;;;;;512180;28;1935;-72
2024/01/28 00:05:17;;;;;;;13.63;7.70;;;;;;;;;;510361;28;1174;-72
2024/01/28 00:05:33;;;;;;;15.77;8.52;;;;;;;;;;510241;28;1442;-72
2024/01/28 00:05:51;;;;;;;14.27;8.25;;;;;;;;;;510422;28;1404;-72
2024/01/28 00:06:07;;;;;;;13.68;8.20;;;;;;;;;;510973;28;1456;-72
2024/01/28 00:06:22;;;;;;;15.00;8.20;;;;;;;;;;512651;28;1351;-72
2024/01/28 00:06:37;;;;;;;15.03;8.37;;;;;;;;;;514385;28;1971;-72
2024/01/28 00:06:52;;;;;;;15.40;8.60;;;;;;;;;;515830;28;1425;-72
2024/01/28 00:07:08;;;;;;;15.70;8.37;;;;;;;;;;514445;28;1978;-72
2024/01/28 00:07:23;;;;;;;13.75;7.93;;;;;;;;;;514930;28;1366;-72
2024/01/28 00:07:39;;;;;;;14.77;8.30;;;;;;;;;;516480;28;1571;-72
2024/01/28 00:07:54;;;;;;;16.45;8.70;;;;;;;;;;513866;28;1465;-72
2024/01/28 00:08:10;;;;;;;15.27;8.40;;;;;;;;;;513642;28;1381;-72
2024/01/28 00:08:25;;;;;;;13.75;8.13;;;;;;;;;;511306;28;1934;-72
2024/01/28 00:08:41;;;;;;;14.23;8.00;;;;;;;;;;513760;28;1891;-72
2024/01/28 00:08:57;;;;;;;14.85;8.13;;;;;;;;;;514186;28;1632;-72
2024/01/28 00:09:12;;;;;;;15.80;8.27;;;;;;;;;;512454;28;1379;-72
2024/01/28 00:09:27;;;;;;;15.20;8.50;;;;;;;;;;512546;28;1284;-72
2024/01/28 00:09:43;;;;;;;13.87;8.60;;;;;;;;;;512152;28;1249;-72
2024/01/28 00:09:58;;;;;;;14.43;8.43;;;;;;;;;;514053;28;1534;-72
2024/01/28 00:10:14;;;;;;;15.63;8.47;;;;;;;;;;514126;28;1473;-72
2024/01/28 00:10:30;;;;;;;15.15;8.05;;;;;;;;;;514485;28;1461;-72
2024/01/28 00:10:45;;;;;;;13.32;7.53;;;;;;;;;;512648;28;1326;-72
2024/01/28 00:11:00;;;;;;;14.23;7.97;;;;;;;;;;512288;28;1545;-72
2024/01/28 00:11:15;;;;;;;14.23;8.23;;;;;;;;;;512409;28;1479;-72
2024/01/28 00:11:31;;;;;;;14.00;8.23;;;;;;;;;;512129;28;1827;-73
2024/01/28 00:11:46;;;;;;;15.17;8.17;;;;;;;;;;510442;28;1673;-72
2024/01/28 00:12:02;;;;;;;15.07;8.10;;;;;;;;;;509651;29;1376;-72
2024/01/28 00:12:17;;;;;;;14.48;7.97;;;;;;;;;;509509;29;1518;-72
2024/01/28 00:12:33;;;;;;;14.30;7.83;;;;;;;;;;510877;28;1406;-71
2024/01/28 00:12:48;;;;;;;14.00;7.68;;;;;;;;;;509587;29;1411;-72
2024/01/28 00:13:04;;;;;;;15.73;7.97;;;;;;;;;;508288;29;1348;-73
2024/01/28 00:13:23;;;;;;;16.27;8.50;;;;;;;;;;508528;29;1862;-72
2024/01/28 00:13:39;;;;;;;15.18;8.40;;;;;;;;;;511180;28;1321;-71
2024/01/28 00:13:54;;;;;;;15.00;8.20;;;;;;;;;;510798;28;1181;-72
2024/01/28 00:14:09;;;;;;;15.80;8.40;;;;;;;;;;512290;28;1533;-72
2024/01/28 00:14:25;;;;;;;14.98;8.10;;;;;;;;;;511834;28;1454;-72
2024/01/28 00:14:41;;;;;;;14.95;8.10;;;;;;;;;;512545;28;1544;-73
2024/01/28 00:14:57;;;;;;;16.13;8.57;;;;;;;;;;513309;28;1922;-72
2024/01/28 00:15:12;;;;;;;16.23;8.40;;;;;;;;;;513590;28;1434;-73
2024/01/28 00:15:27;;;;;;;15.75;8.50;;;;;;;;;;514951;28;1211;-72
2024/01/28 00:15:44;;;;;;;15.80;8.87;;;;;;;;;;515635;28;1289;-72
2024/01/28 00:15:59;;;;;;;15.50;8.45;;;;;;;;;;516132;28;1331;-72
2024/01/28 00:16:15;;;;;;;15.07;8.20;;;;;;;;;;516296;28;1401;-72
2024/01/28 00:16:31;;;;;;;15.10;8.23;;;;;;;;;;516089;28;1658;-71
2024/01/28 00:16:46;;;;;;;15.43;8.00;;;;;;;;;;515666;28;1334;-72
2024/01/28 00:17:02;;;;;;;15.45;8.13;;;;;;;;;;514233;28;1219;-73
2024/01/28 00:17:17;;;;;;;16.27;8.53;;;;;;;;;;513475;28;1415;-72
2024/01/28 00:17:32;;;;;;;15.98;8.45;;;;;;;;;;512125;28;1240;-72
2024/01/28 00:17:48;;;;;;;15.10;8.33;;;;;;;;;;512772;28;1245;-72
2024/01/28 00:18:03;;;;;;;15.10;8.63;;;;;;;;;;514198;28;1887;-72
2024/01/28 00:18:19;;;;;;;14.88;8.40;;;;;;;;;;513313;28;2012;-73
2024/01/28 00:18:34;;;;;;;16.45;8.50;;;;;;;;;;513971;28;1291;-72
2024/01/28 00:18:50;;;;;;;14.70;8.47;;;;;;;;;;512326;28;1462;-72
2024/01/28 00:19:05;;;;;;;12.37;7.87;;;;;;;;;;511809;28;1446;-72
2024/01/28 00:19:21;;;;;;;12.85;7.80;;;;;;;;;;510708;28;1449;-72
2024/01/28 00:19:36;;;;;;;14.27;8.23;;;;;;;;;;510275;28;1432;-72
2024/01/28 00:19:52;;;;;;;15.57;8.50;;;;;;;;;;510538;28;1885;-72
2024/01/28 00:20:09;;;;;;;14.68;8.32;;;;;;;;;;510304;28;1233;-72
2024/01/28 00:20:26;;;;;;;13.50;8.18;;;;;;;;;;510271;28;1380;-72
2024/01/28 00:20:41;;;;;;;13.60;8.27;;;;;;;;;;510890;28;1577;-72
2024/01/28 00:20:56;;;;;;;12.93;7.90;;;;;;;;;;512160;28;1580;-72
2024/01/28 00:21:11;;;;;;;13.77;7.73;;;;;;;;;;511267;28;1463;-72
2024/01/28 00:21:27;;;;;;;14.20;8.07;;;;;;;;;;513457;28;1685;-72
2024/01/28 00:21:43;;;;;;;14.70;8.60;;;;;;;;;;513069;28;1378;-72
2024/01/28 00:21:58;;;;;;;17.05;8.82;;;;;;;;;;513688;28;1283;-72
2024/01/28 00:22:13;;;;;;;16.70;8.70;;;;;;;;;;514990;28;1390;-72
2024/01/28 00:22:29;;;;;;;15.63;8.67;;;;;;;;;;514622;28;1473;-72
2024/01/28 00:22:44;;;;;;;14.85;8.30;;;;;;;;;;514724;28;1279;-72
2024/01/28 00:23:02;;;;;;;14.55;8.38;;;;;;;;;;514985;28;2242;-73
2024/01/28 00:23:17;;;;;;;14.85;8.55;;;;;;;;;;518821;28;1670;-72
2024/01/28 00:23:32;;;;;;;15.50;8.27;;;;;;;;;;518353;28;1428;-72
2024/01/28 00:23:48;;;;;;;15.18;8.25;;;;;;;;;;515845;28;1307;-72
2024/01/28 00:24:04;;;;;;;14.00;8.43;;;;;;;;;;513758;28;1513;-72
2024/01/28 00:24:21;;;;;;;14.13;8.32;;;;;;;;;;514323;28;1429;-72
2024/01/28 00:24:37;;;;;;;14.00;8.13;;;;;;;;;;513939;28;1706;-71
2024/01/28 00:24:52;;;;;;;12.47;7.93;;;;;;;;;;511628;28;1817;-72
2024/01/28 00:25:07;;;;;;;14.00;8.10;;;;;;;;;;510300;28;1453;-72
2024/01/28 00:25:23;;;;;;;15.65;8.20;;;;;;;;;;510158;28;1333;-73
2024/01/28 00:25:38;;;;;;;13.57;7.80;;;;;;;;;;510077;28;1431;-72
2024/01/28 00:25:53;;;;;;;13.37;7.97;;;;;;;;;;511287;28;1558;-72
2024/01/28 00:26:09;;;;;;;15.80;8.65;;;;;;;;;;512414;28;1347;-72
2024/01/28 00:26:24;;;;;;;18.13;8.97;;;;;;;;;;512291;28;1816;-72
2024/01/28 00:26:40;;;;;;;17.63;8.40;;;;;;;;;;512635;28;1446;-72
2024/01/28 00:26:56;;;;;;;14.48;7.85;;;;;;;;;;512431;28;1211;-72
2024/01/28 00:27:11;;;;;;;13.50;8.20;;;;;;;;;;514387;28;1916;-72
2024/01/28 00:27:27;;;;;;;12.93;8.17;;;;;;;;;;514415;28;1204;-72
2024/01/28 00:27:42;;;;;;;13.10;7.95;;;;;;;;;;513260;28;1858;-72
2024/01/28 00:27:58;;;;;;;13.10;7.87;;;;;;;;;;513805;28;1870;-72
2024/01/28 00:28:14;;;;;;;14.73;8.27;;;;;;;;;;513800;28;1480;-71
2024/01/28 00:28:30;;;;;;;15.95;8.52;;;;;;;;;;513458;28;1380;-72
2024/01/28 00:28:46;;;;;;;14.55;8.05;;;;;;;;;;516116;28;1257;-72
2024/01/28 00:29:01;;;;;;;16.27;8.37;;;;;;;;;;516710;28;1385;-72
2024/01/28 00:29:16;;;;;;;16.60;8.43;;;;;;;;;;513480;28;1341;-72
2024/01/28 00:29:31;;;;;;;14.77;8.20;;;;;;;;;;513840;28;1963;-72
2024/01/28 00:29:47;;;;;;;13.50;8.07;;;;;;;;;;514017;28;1304;-72
2024/01/28 00:30:04;;;;;;;13.40;8.00;;;;;;;;;;514705;28;1390;-72
2024/01/28 00:30:20;;;;;;;13.35;7.80;;;;;;;;;;514168;28;1264;-72
2024/01/28 00:30:36;;;;;;;12.60;7.88;;;;;;;;;;516461;28;1305;-72
2024/01/28 00:30:51;;;;;;;13.40;7.80;;;;;;;;;;516558;28;1514;-72
2024/01/28 00:31:12;;;;;;;14.15;7.80;;;;;;;;;;514882;28;2850;-72
2024/01/28 00:31:27;;;;;;;14.80;7.95;;;;;;;;;;514515;28;1271;-72
2024/01/28 00:31:43;;;;;;;14.20;7.90;;;;;;;;;;513989;28;1469;-72
2024/01/28 00:32:01;;;;;;;14.13;7.90;;;;;;;;;;511763;28;1355;-72
2024/01/28 00:32:17;;;;;;;15.05;8.07;;;;;;;;;;512725;28;1462;-72
2024/01/28 00:32:32;;;;;;;14.55;8.07;;;;;;;;;;512915;28;1450;-72
2024/01/28 00:32:47;;;;;;;14.00;8.10;;;;;;;;;;512650;28;1875;-72
2024/01/28 00:33:03;;;;;;;15.23;8.02;;;;;;;;;;512786;28;1399;-72
2024/01/28 00:33:19;;;;;;;15.63;8.10;;;;;;;;;;510938;29;1467;-72
2024/01/28 00:33:34;;;;;;;14.07;7.60;;;;;;;;;;509534;29;1482;-72
2024/01/28 00:33:49;;;;;;;12.30;7.27;;;;;;;;;;511423;28;1603;-73
2024/01/28 00:34:05;;;;;;;11.88;7.63;;;;;;;;;;511076;28;1256;-72
2024/01/28 00:34:20;;;;;;;13.17;8.00;;;;;;;;;;512037;28;1728;-72
2024/01/28 00:34:36;;;;;;;14.90;8.10;;;;;;;;;;511876;28;1273;-72
2024/01/28 00:34:52;;;;;;;15.50;8.15;;;;;;;;;;513847;28;1451;-72
2024/01/28 00:35:08;;;;;;;14.57;8.20;;;;;;;;;;513791;28;1442;-72
2024/01/28 00:35:23;;;;;;;12.88;8.00;;;;;;;;;;511993;28;1136;-72
2024/01/28 00:35:38;;;;;;;13.63;7.97;;;;;;;;;;512418;28;1403;-72
2024/01/28 00:35:54;;;;;;;15.80;8.18;;;;;;;;;;512677;28;1963;-72
2024/01/28 00:36:15;;;;;;;15.57;8.20;;;;;;;;;;512539;28;1303;-72
2024/01/28 00:36:31;;;;;;;16.45;8.52;;;;;;;;;;514013;28;1315;-73
2024/01/28 00:36:46;;;;;;;14.57;8.13;;;;;;;;;;513996;28;1332;-72
2024/01/28 00:37:02;;;;;;;14.60;8.18;;;;;;;;;;515125;28;1247;-73
2024/01/28 00:37:17;;;;;;;14.27;8.20;;;;;;;;;;517583;28;1314;-72
2024/01/28 00:37:33;;;;;;;14.52;8.02;;;;;;;;;;518195;28;1792;-72
2024/01/28 00:37:48;;;;;;;14.43;7.97;;;;;;;;;;516711;28;1440;-72
2024/01/28 00:38:03;;;;;;;13.70;8.10;;;;;;;;;;514517;28;1367;-73
2024/01/28 00:38:19;;;;;;;14.57;8.20;;;;;;;;;;515105;28;1457;-73
2024/01/28 00:38:34;;;;;;;15.90;8.20;;;;;;;;;;514414;28;1426;-72
2024/01/28 00:38:49;;;;;;;15.68;7.97;;;;;;;;;;514630;28;1473;-73
2024/01/28 00:39:05;;;;;;;13.90;7.60;;;;;;;;;;514817;28;1407;-73
2024/01/28 00:39:20;;;;;;;14.70;7.90;;;;;;;;;;512115;28;2201;-72
2024/01/28 00:39:36;;;;;;;15.07;8.07;;;;;;;;;;512611;28;1430;-72
2024/01/28 00:39:51;;;;;;;13.27;7.77;;;;;;;;;;514811;28;1612;-72
2024/01/28 00:40:07;;;;;;;12.68;7.80;;;;;;;;;;512939;28;1205;-72
2024/01/28 00:40:24;;;;;;;13.55;7.93;;;;;;;;;;510885;29;1346;-72
2024/01/28 00:40:39;;;;;;;14.23;8.02;;;;;;;;;;509227;29;1423;-72
2024/01/28 00:40:54;;;;;;;14.63;8.20;;;;;;;;;;510502;28;1931;-72
2024/01/28 00:41:22;;;;;;;13.87;8.20;;;;;;;;;;511389;28;1387;-72
2024/01/28 00:41:37;;;;;;;13.07;7.60;;;;;;;;;;512451;28;1397;-72
2024/01/28 00:41:53;;;;;;;12.40;7.70;;;;;;;;;;510125;28;1102;-73
2024/01/28 00:42:08;;;;;;;12.40;7.88;;;;;;;;;;511386;28;1336;-72
2024/01/28 00:42:24;;;;;;;13.47;8.10;;;;;;;;;;512548;28;1375;-72
2024/01/28 00:42:39;;;;;;;13.45;8.13;;;;;;;;;;514800;28;2125;-72
2024/01/28 00:42:55;;;;;;;16.97;8.67;;;;;;;;;;514669;28;1200;-72
2024/01/28 00:43:11;;;;;;;18.80;8.93;;;;;;;;;;514962;28;1347;-72
2024/01/28 00:43:27;;;;;;;14.88;8.38;;;;;;;;;;514272;28;1363;-72
2024/01/28 00:43:43;;;;;;;12.33;7.83;;;;;;;;;;514223;28;1243;-71
2024/01/28 00:43:58;;;;;;;12.50;7.65;;;;;;;;;;514745;28;1307;-72
2024/01/28 00:44:13;;;;;;;13.30;7.90;;;;;;;;;;515254;28;2211;-72
2024/01/28 00:44:28;;;;;;;15.10;8.00;;;;;;;;;;515595;28;1838;-72
2024/01/28 00:44:44;;;;;;;15.65;8.27;;;;;;;;;;512421;28;1203;-72
2024/01/28 00:44:59;;;;;;;14.13;8.27;;;;;;;;;;510724;28;1363;-72
2024/01/28 00:45:14;;;;;;;15.47;8.20;;;;;;;;;;510190;29;1253;-72
2024/01/28 00:45:31;;;;;;;15.55;8.38;;;;;;;;;;511598;28;1337;-72
2024/01/28 00:45:46;;;;;;;13.55;8.18;;;;;;;;;;511562;28;1848;-72
2024/01/28 00:46:01;;;;;;;13.80;8.13;;;;;;;;;;513401;28;1430;-72
2024/01/28 00:46:17;;;;;;;14.00;8.33;;;;;;;;;;514140;28;1482;-72
2024/01/28 00:46:32;;;;;;;13.20;8.07;;;;;;;;;;513435;28;1485;-72
2024/01/28 00:46:47;;;;;;;12.17;7.43;;;;;;;;;;513152;28;1574;-72
2024/01/28 00:47:03;;;;;;;13.73;7.57;;;;;;;;;;512850;28;1975;-72
2024/01/28 00:47:18;;;;;;;15.17;8.10;;;;;;;;;;512672;28;2034;-72
2024/01/28 00:47:33;;;;;;;14.80;7.95;;;;;;;;;;514064;28;1624;-72
2024/01/28 00:47:49;;;;;;;14.20;7.90;;;;;;;;;;512798;28;1292;-72
2024/01/28 00:48:04;;;;;;;12.93;8.00;;;;;;;;;;512395;28;1381;-72
2024/01/28 00:48:20;;;;;;;13.93;8.20;;;;;;;;;;513054;28;1292;-72
2024/01/28 00:48:36;;;;;;;14.60;8.57;;;;;;;;;;512795;28;1402;-72
2024/01/28 00:48:51;;;;;;;12.63;7.90;;;;;;;;;;512767;28;1753;-72
2024/01/28 00:49:07;;;;;;;13.00;7.70;;;;;;;;;;514021;28;1429;-72
2024/01/28 00:49:29;;;;;;;15.55;8.18;;;;;;;;;;513318;28;1287;-73
2024/01/28 00:49:44;;;;;;;14.77;8.07;;;;;;;;;;514433;28;1319;-72
2024/01/28 00:49:59;;;;;;;14.25;8.10;;;;;;;;;;514898;28;1899;-72
2024/01/28 00:50:15;;;;;;;13.30;8.20;;;;;;;;;;516352;28;2020;-72
2024/01/28 00:50:30;;;;;;;12.87;7.83;;;;;;;;;;516955;28;1265;-72
2024/01/28 00:50:45;;;;;;;11.82;7.15;;;;;;;;;;515312;28;1419;-72
2024/01/28 00:51:00;;;;;;;12.30;7.30;;;;;;;;;;515341;28;1149;-72
2024/01/28 00:51:16;;;;;;;13.53;7.77;;;;;;;;;;514850;28;1188;-72
2024/01/28 00:51:33;;;;;;;13.43;7.82;;;;;;;;;;515599;28;1066;-72
2024/01/28 00:51:48;;;;;;;14.55;8.25;;;;;;;;;;516832;28;1244;-72
2024/01/28 00:52:03;;;;;;;14.80;8.50;;;;;;;;;;514965;28;1414;-72
2024/01/28 00:52:19;;;;;;;14.20;8.03;;;;;;;;;;515173;28;1117;-72
2024/01/28 00:52:34;;;;;;;12.77;7.50;;;;;;;;;;515484;28;1094;-72
2024/01/28 00:52:49;;;;;;;13.73;7.67;;;;;;;;;;515430;28;1306;-72
2024/01/28 00:53:05;;;;;;;13.43;7.73;;;;;;;;;;513279;28;1250;-72
2024/01/28 00:53:20;;;;;;;12.63;7.67;;;;;;;;;;511333;29;1196;-72
2024/01/28 00:53:36;;;;;;;16.60;8.27;;;;;;;;;;511038;28;1304;-72
2024/01/28 00:53:51;;;;;;;16.60;8.43;;;;;;;;;;513302;28;1393;-73
2024/01/28 00:54:06;;;;;;;14.43;8.37;;;;;;;;;;512331;28;1716;-72
2024/01/28 00:54:26;;;;;;;14.02;8.00;;;;;;;;;;511632;28;1298;-72
2024/01/28 00:54:41;;;;;;;14.25;7.85;;;;;;;;;;510395;28;1259;-72
2024/01/28 00:54:57;;;;;;;14.87;8.20;;;;;;;;;;513179;28;1286;-72
2024/01/28 00:55:12;;;;;;;15.85;8.20;;;;;;;;;;512732;28;1210;-72
2024/01/28 00:55:28;;;;;;;14.33;7.70;;;;;;;;;;511283;28;1111;-72
2024/01/28 00:55:43;;;;;;;13.63;7.50;;;;;;;;;;513693;28;1177;-72
2024/01/28 00:56:00;;;;;;;14.80;7.82;;;;;;;;;;515276;28;1128;-72
2024/01/28 00:56:17;;;;;;;13.15;7.72;;;;;;;;;;514211;28;906;-72
2024/01/28 00:56:32;;;;;;;13.32;7.90;;;;;;;;;;515497;28;1006;-72
2024/01/28 00:56:48;;;;;;;12.93;7.60;;;;;;;;;;516873;28;1182;-72
2024/01/28 00:57:03;;;;;;;13.43;7.53;;;;;;;;;;517504;28;1072;-72
2024/01/28 00:57:19;;;;;;;15.18;8.02;;;;;;;;;;517448;28;1120;-72
2024/01/28 00:57:34;;;;;;;14.73;8.00;;;;;;;;;;517108;28;1289;-72
2024/01/28 00:57:50;;;;;;;14.85;7.93;;;;;;;;;;514491;28;1223;-72
2024/01/28 00:58:05;;;;;;;13.83;7.47;;;;;;;;;;515806;28;1343;-72
2024/01/28 00:58:20;;;;;;;11.87;7.37;;;;;;;;;;515400;28;1352;-72
2024/01/28 00:58:36;;;;;;;13.07;7.97;;;;;;;;;;514854;28;1104;-72
2024/01/28 00:58:51;;;;;;;14.13;8.07;;;;;;;;;;515517;28;1168;-72
2024/01/28 00:59:06;;;;;;;14.13;7.87;;;;;;;;;;515346;28;1210;-72
2024/01/28 00:59:22;;;;;;;13.45;7.88;;;;;;;;;;512606;28;1817;-72
2024/01/28 00:59:38;;;;;;;11.30;7.40;;;;;;;;;;512829;28;943;-72
2024/01/28 00:59:53;;;;;;;12.18;7.55;;;;;;;;;;514995;28;1073;-72
2024/01/28 01:00:09;;;;;;;13.73;7.87;;;;;;;;;;511309;29;1127;-72
2024/01/28 01:00:27;;;;;;;13.27;7.82;;;;;;;;;;512773;28;1367;-72
2024/01/28 01:00:42;;;;;;;13.30;7.60;;;;;;;;;;513103;28;1184;-72
2024/01/28 01:00:58;;;;;;;14.33;8.00;;;;;;;;;;511317;29;1340;-72
2024/01/28 01:01:13;;;;;;;14.23;8.27;;;;;;;;;;511599;29;1448;-72
2024/01/28 01:01:29;;;;;;;14.03;8.00;;;;;;;;;;515068;28;1330;-72
2024/01/28 01:01:45;;;;;;;12.98;7.70;;;;;;;;;;512780;28;1256;-72
2024/01/28 01:02:00;;;;;;;14.17;7.77;;;;;;;;;;510904;29;1321;-72
2024/01/28 01:02:16;;;;;;;14.38;7.40;;;;;;;;;;511501;29;1043;-72
2024/01/28 01:02:32;;;;;;;14.63;7.60;;;;;;;;;;511226;28;1073;-72
2024/01/28 01:02:47;;;;;;;14.98;7.82;;;;;;;;;;511158;28;1719;-72
2024/01/28 01:03:03;;;;;;;12.17;7.70;;;;;;;;;;511859;28;1199;-72
2024/01/28 01:03:18;;;;;;;12.53;7.77;;;;;;;;;;511869;28;1779;-72
2024/01/28 01:03:34;;;;;;;14.27;7.88;;;;;;;;;;515420;28;1989;-72
2024/01/28 01:03:49;;;;;;;12.57;7.80;;;;;;;;;;515536;28;1598;-72
2024/01/28 01:04:04;;;;;;;13.15;8.05;;;;;;;;;;517216;28;1063;-72
2024/01/28 01:04:19;;;;;;;16.53;8.33;;;;;;;;;;517052;28;1368;-72
2024/01/28 01:04:35;;;;;;;14.13;7.90;;;;;;;;;;513698;28;1866;-72
2024/01/28 01:04:50;;;;;;;12.15;7.82;;;;;;;;;;514743;28;1310;-72
2024/01/28 01:05:05;;;;;;;12.10;7.80;;;;;;;;;;511796;28;1457;-72
2024/01/28 01:05:21;;;;;;;11.80;7.47;;;;;;;;;;507656;28;1317;-72
2024/01/28 01:05:36;;;;;;;12.43;7.30;;;;;;;;;;509978;28;1537;-72
2024/01/28 01:05:52;;;;;;;14.73;7.60;;;;;;;;;;511114;28;1224;-72
2024/01/28 01:06:09;;;;;;;15.07;7.97;;;;;;;;;;511324;29;960;-72
2024/01/28 01:06:24;;;;;;;14.90;8.07;;;;;;;;;;512015;28;923;-72
2024/01/28 01:06:43;;;;;;;16.03;7.97;;;;;;;;;;512445;28;1444;-72
2024/01/28 01:06:59;;;;;;;16.20;7.95;;;;;;;;;;512084;28;916;-72
2024/01/28 01:07:14;;;;;;;13.63;7.90;;;;;;;;;;513074;28;1939;-72
2024/01/28 01:07:30;;;;;;;13.53;7.87;;;;;;;;;;514462;28;1188;-72
2024/01/28 01:07:46;;;;;;;14.05;7.90;;;;;;;;;;517140;28;926;-72
2024/01/28 01:08:01;;;;;;;14.50;7.90;;;;;;;;;;514949;28;1282;-73
2024/01/28 01:08:17;;;;;;;13.60;7.90;;;;;;;;;;513496;28;1216;-72
2024/01/28 01:08:32;;;;;;;13.77;7.97;;;;;;;;;;513003;28;1130;-72
2024/01/28 01:08:48;;;;;;;15.20;8.00;;;;;;;;;;512599;28;1539;-72
2024/01/28 01:09:03;;;;;;;13.07;7.80;;;;;;;;;;512596;28;2235;-72
2024/01/28 01:09:18;;;;;;;12.07;7.53;;;;;;;;;;510832;29;1117;-72
2024/01/28 01:09:35;;;;;;;15.05;8.00;;;;;;;;;;510479;28;1356;-72
2024/01/28 01:09:50;;;;;;;17.45;8.30;;;;;;;;;;511029;28;1062;-72
2024/01/28 01:10:08;;;;;;;15.13;7.97;;;;;;;;;;511209;28;1116;-72
2024/01/28 01:10:25;;;;;;;14.48;7.90;;;;;;;;;;513020;28;935;-72
2024/01/28 01:10:41;;;;;;;16.00;7.78;;;;;;;;;;513739;28;1029;-73
2024/01/28 01:10:56;;;;;;;15.63;7.77;;;;;;;;;;514272;28;1518;-72
2024/01/28 01:11:11;;;;;;;15.27;7.88;;;;;;;;;;514960;28;1092;-72
2024/01/28 01:11:27;;;;;;;13.10;7.53;;;;;;;;;;515827;28;1096;-72
2024/01/28 01:11:43;;;;;;;13.32;7.55;;;;;;;;;;518212;28;1312;-72
2024/01/28 01:11:58;;;;;;;14.05;7.75;;;;;;;;;;516432;28;1291;-72
2024/01/28 01:12:14;;;;;;;13.07;7.90;;;;;;;;;;517655;28;1261;-72
2024/01/28 01:12:29;;;;;;;13.07;7.90;;;;;;;;;;515015;28;1386;-73
2024/01/28 01:12:44;;;;;;;12.45;7.93;;;;;;;;;;516495;28;1183;-72
2024/01/28 01:13:00;;;;;;;13.13;7.70;;;;;;;;;;516619;28;1291;-72
2024/01/28 01:13:16;;;;;;;14.32;7.57;;;;;;;;;;517014;28;918;-72
2024/01/28 01:13:32;;;;;;;14.23;7.77;;;;;;;;;;514557;28;1183;-72
2024/01/28 01:13:50;;;;;;;13.25;7.45;;;;;;;;;;511987;28;1899;-72
2024/01/28 01:14:06;;;;;;;12.95;7.47;;;;;;;;;;511376;28;1029;-72
2024/01/28 01:14:21;;;;;;;14.80;8.00;;;;;;;;;;512350;28;923;-72
2024/01/28 01:14:37;;;;;;;15.13;8.13;;;;;;;;;;512731;28;1117;-72
2024/01/28 01:14:52;;;;;;;14.82;8.23;;;;;;;;;;513775;28;998;-72
2024/01/28 01:15:08;;;;;;;13.47;7.87;;;;;;;;;;514512;28;1197;-72
2024/01/28 01:15:23;;;;;;;13.73;7.68;;;;;;;;;;514853;28;1039;-72
2024/01/28 01:15:39;;;;;;;15.32;7.85;;;;;;;;;;516197;28;1077;-72
2024/01/28 01:15:55;;;;;;;13.70;7.43;;;;;;;;;;514538;28;1225;-72
2024/01/28 01:16:10;;;;;;;13.50;7.50;;;;;;;;;;514910;28;1097;-72
2024/01/28 01:16:26;;;;;;;13.33;7.63;;;;;;;;;;514811;28;1218;-72
2024/01/28 01:16:41;;;;;;;12.30;7.72;;;;;;;;;;514609;28;1115;-72
2024/01/28 01:16:56;;;;;;;13.60;7.77;;;;;;;;;;514438;28;1341;-73
2024/01/28 01:17:12;;;;;;;15.27;7.60;;;;;;;;;;514419;28;1182;-72
2024/01/28 01:17:28;;;;;;;14.73;7.57;;;;;;;;;;512552;28;1553;-72
2024/01/28 01:17:44;;;;;;;13.10;7.75;;;;;;;;;;513557;28;1207;-71
2024/01/28 01:18:00;;;;;;;13.50;8.02;;;;;;;;;;514918;28;1353;-72
2024/01/28 01:18:15;;;;;;;13.70;8.07;;;;;;;;;;512990;28;1308;-72
2024/01/28 01:18:30;;;;;;;12.40;7.80;;;;;;;;;;510654;28;1307;-72
2024/01/28 01:18:46;;;;;;;13.05;7.70;;;;;;;;;;512163;28;1293;-72
2024/01/28 01:19:02;;;;;;;13.17;7.37;;;;;;;;;;512373;28;1150;-72
2024/01/28 01:19:17;;;;;;;12.30;7.35;;;;;;;;;;510755;28;1282;-73
2024/01/28 01:19:32;;;;;;;11.67;7.43;;;;;;;;;;511000;28;1299;-73
2024/01/28 01:19:48;;;;;;;11.75;7.18;;;;;;;;;;514039;28;1001;-72
2024/01/28 01:20:04;;;;;;;12.10;7.30;;;;;;;;;;512746;28;1308;-72
2024/01/28 01:20:19;;;;;;;14.20;7.60;;;;;;;;;;513261;28;1206;-72
2024/01/28 01:20:34;;;;;;;14.30;7.60;;;;;;;;;;515027;28;855;-73
2024/01/28 01:20:53;;;;;;;11.80;7.55;;;;;;;;;;514775;28;1038;-72
2024/01/28 01:21:08;;;;;;;13.95;7.60;;;;;;;;;;514880;28;970;-72
2024/01/28 01:21:24;;;;;;;14.05;7.38;;;;;;;;;;515507;28;979;-72
2024/01/28 01:21:39;;;;;;;12.77;7.67;;;;;;;;;;516938;28;1068;-72
2024/01/28 01:21:57;;;;;;;13.27;7.80;;;;;;;;;;514312;28;1249;-72
2024/01/28 01:22:12;;;;;;;12.93;7.50;;;;;;;;;;515030;28;1225;-72
2024/01/28 01:22:27;;;;;;;13.37;7.40;;;;;;;;;;514859;28;1277;-72
2024/01/28 01:22:43;;;;;;;13.32;7.45;;;;;;;;;;513978;28;1766;-72
2024/01/28 01:22:59;;;;;;;14.75;7.55;;;;;;;;;;514881;28;966;-72
2024/01/28 01:23:14;;;;;;;15.23;7.73;;;;;;;;;;513846;28;1262;-72
2024/01/28 01:23:30;;;;;;;15.60;7.90;;;;;;;;;;514794;28;999;-72
2024/01/28 01:23:45;;;;;;;14.93;7.90;;;;;;;;;;516783;28;1258;-72
2024/01/28 01:24:00;;;;;;;14.15;8.00;;;;;;;;;;514274;28;1297;-72
2024/01/28 01:24:16;;;;;;;14.07;8.00;;;;;;;;;;512877;28;969;-73
2024/01/28 01:24:31;;;;;;;15.40;7.97;;;;;;;;;;511267;28;1416;-72
2024/01/28 01:24:46;;;;;;;14.98;7.97;;;;;;;;;;508803;28;2256;-72
2024/01/28 01:25:02;;;;;;;13.00;7.70;;;;;;;;;;509100;29;1873;-72
2024/01/28 01:25:17;;;;;;;12.13;7.57;;;;;;;;;;510904;28;1821;-72
2024/01/28 01:25:32;;;;;;;13.57;7.90;;;;;;;;;;510548;28;1301;-72
2024/01/28 01:25:48;;;;;;;14.13;8.10;;;;;;;;;;509054;29;1272;-72
2024/01/28 01:26:03;;;;;;;12.37;7.57;;;;;;;;;;510575;29;1240;-72
2024/01/28 01:26:18;;;;;;;13.15;7.18;;;;;;;;;;510178;28;1840;-72
2024/01/28 01:26:34;;;;;;;14.20;7.47;;;;;;;;;;512422;28;1132;-72
2024/01/28 01:26:51;;;;;;;14.47;8.17;;;;;;;;;;512493;28;1278;-72
2024/01/28 01:27:06;;;;;;;13.85;8.25;;;;;;;;;;512645;28;1969;-72
2024/01/28 01:27:21;;;;;;;13.15;7.75;;;;;;;;;;513126;28;1135;-72
2024/01/28 01:27:37;;;;;;;15.40;7.93;;;;;;;;;;512872;28;1294;-73
2024/01/28 01:27:53;;;;;;;14.85;8.07;;;;;;;;;;512685;28;1371;-72
2024/01/28 01:28:08;;;;;;;14.50;8.10;;;;;;;;;;510953;29;1491;-71
2024/01/28 01:28:31;;;;;;;13.43;7.80;;;;;;;;;;511007;29;1429;-72
2024/01/28 01:28:46;;;;;;;12.55;7.63;;;;;;;;;;512486;28;970;-72
2024/01/28 01:29:02;;;;;;;13.87;7.60;;;;;;;;;;512912;28;1234;-72
2024/01/28 01:29:17;;;;;;;13.32;7.68;;;;;;;;;;512970;28;1448;-72
2024/01/28 01:29:32;;;;;;;13.70;7.93;;;;;;;;;;510510;28;1435;-73
2024/01/28 01:29:47;;;;;;;13.83;7.80;;;;;;;;;;514002;28;1261;-72
2024/01/28 01:30:03;;;;;;;13.30;7.80;;;;;;;;;;513195;28;1100;-72
2024/01/28 01:30:18;;;;;;;13.63;7.70;;;;;;;;;;513687;28;1818;-72
2024/01/28 01:30:33;;;;;;;12.13;7.10;;;;;;;;;;514581;28;1402;-72
2024/01/28 01:30:49;;;;;;;11.80;7.72;;;;;;;;;;514646;28;1172;-71
2024/01/28 01:31:06;;;;;;;11.23;7.83;;;;;;;;;;513074;28;1448;-72
2024/01/28 01:31:22;;;;;;;11.63;7.45;;;;;;;;;;512892;28;1366;-72
2024/01/28 01:31:37;;;;;;;13.70;8.05;;;;;;;;;;513519;28;1029;-72
2024/01/28 01:31:54;;;;;;;13.88;8.45;;;;;;;;;;514729;28;1352;-72
2024/01/28 01:32:10;;;;;;;14.30;8.65;;;;;;;;;;514863;28;1251;-72
2024/01/28 01:32:25;;;;;;;14.30;8.80;;;;;;;;;;512755;28;1309;-72
2024/01/28 01:32:41;;;;;;;14.45;8.55;;;;;;;;;;514083;28;1257;-72
2024/01/28 01:32:56;;;;;;;15.50;8.30;;;;;;;;;;510974;28;1406;-72
2024/01/28 01:33:12;;;;;;;16.65;8.60;;;;;;;;;;510950;29;1219;-72
2024/01/28 01:33:27;;;;;;;16.43;8.57;;;;;;;;;;512602;28;1070;-72
2024/01/28 01:33:42;;;;;;;14.53;8.57;;;;;;;;;;514171;28;1229;-72
2024/01/28 01:33:58;;;;;;;14.60;8.90;;;;;;;;;;514672;28;1359;-72
2024/01/28 01:34:15;;;;;;;15.30;8.70;;;;;;;;;;514826;28;1085;-72
2024/01/28 01:34:30;;;;;;;15.65;8.70;;;;;;;;;;515060;28;1079;-72
2024/01/28 01:34:46;;;;;;;16.15;9.05;;;;;;;;;;515484;28;1127;-72
2024/01/28 01:35:02;;;;;;;15.37;8.60;;;;;;;;;;512998;28;1327;-72
2024/01/28 01:35:17;;;;;;;14.70;8.27;;;;;;;;;;510676;28;1174;-72
2024/01/28 01:35:33;;;;;;;14.87;8.47;;;;;;;;;;512770;28;1382;-72
2024/01/28 01:35:48;;;;;;;15.33;8.50;;;;;;;;;;512753;28;1313;-72